createdAt,value
2023-04-15T00:01:06.588Z,99160.97
2023-04-15T00:03:35.687Z,99165.25
2023-04-15T00:06:06.295Z,99170.59
2023-04-15T00:08:34.472Z,99161.09
2023-04-15T00:11:05.935Z,99167.25
2023-04-15T00:13:35.827Z,99164.50
2023-04-15T00:16:04.098Z,99165.25
2023-04-15T00:18:32.392Z,99164.31
2023-04-15T00:21:00.634Z,99162.72
2023-04-15T00:23:28.895Z,99156.84
2023-04-15T00:25:56.937Z,99157.09
2023-04-15T00:28:25.669Z,99154.88
2023-04-15T00:30:55.095Z,99157.63
2023-04-15T00:33:24.217Z,99151.50
2023-04-15T00:35:52.228Z,99149.97
2023-04-15T00:38:20.287Z,99152.16
2023-04-15T00:40:48.462Z,99146.22
2023-04-15T00:43:18.253Z,99137.84
2023-04-15T00:45:47.261Z,99137.69
2023-04-15T00:48:17.798Z,99134.78
2023-04-15T00:50:48.421Z,99126.34
2023-04-15T00:53:17.347Z,99120.44
2023-04-15T00:55:45.479Z,99125.75
2023-04-15T00:58:14.108Z,99133.03
2023-04-15T01:00:44.400Z,99134.84
2023-04-15T01:03:13.554Z,99137.06
2023-04-15T01:05:45.263Z,99135.81
2023-04-15T01:08:15.319Z,99142.22
2023-04-15T01:10:45.324Z,99143.38
2023-04-15T01:13:18.753Z,99140.44
2023-04-15T01:15:48.014Z,99136.69
2023-04-15T01:18:18.409Z,99146.22
2023-04-15T01:20:49.954Z,99155.91
2023-04-15T01:23:19.115Z,99147.88
2023-04-15T01:25:50.708Z,99157.88
2023-04-15T01:28:20.792Z,99153.84
2023-04-15T01:30:49.316Z,99155.88
2023-04-15T01:33:18.018Z,99156.53
2023-04-15T01:35:48.153Z,99153.19
2023-04-15T01:38:16.873Z,99155.50
2023-04-15T01:40:47.153Z,99141.59
2023-04-15T01:43:18.101Z,99151.06
2023-04-15T01:45:47.216Z,99152.84
2023-04-15T01:48:17.400Z,99148.56
2023-04-15T01:50:45.932Z,99153.31
2023-04-15T01:53:16.178Z,99152.84
2023-04-15T01:55:44.442Z,99147.38
2023-04-15T01:58:17.909Z,99142.66
2023-04-15T02:00:46.355Z,99137.78
2023-04-15T02:03:16.073Z,99135.91
2023-04-15T02:05:44.435Z,99137.31
2023-04-15T02:08:13.525Z,99136.94
2023-04-15T02:10:41.786Z,99135.97
2023-04-15T02:13:09.842Z,99145.13
2023-04-15T02:15:41.090Z,99141.84
2023-04-15T02:18:10.072Z,99148.34
2023-04-15T02:20:38.860Z,99142.91
2023-04-15T02:23:07.798Z,99148.41
2023-04-15T02:25:37.340Z,99136.75
2023-04-15T02:28:08.975Z,99142.41
2023-04-15T02:30:37.911Z,99145.50
2023-04-15T02:33:07.971Z,99141.06
2023-04-15T02:35:39.277Z,99134.16
2023-04-15T02:38:07.637Z,99135.59
2023-04-15T02:40:35.356Z,99138.78
2023-04-15T02:43:06.946Z,99146.38
2023-04-15T02:45:35.884Z,99142.38
2023-04-15T02:48:07.931Z,99151.50
2023-04-15T02:50:39.752Z,99150.75
2023-04-15T02:53:08.899Z,99142.66
2023-04-15T02:55:37.013Z,99157.94
2023-04-15T02:58:04.943Z,99157.00
2023-04-15T03:00:33.425Z,99158.44
2023-04-15T03:03:04.141Z,99153.19
2023-04-15T03:05:33.901Z,99153.84
2023-04-15T03:08:05.152Z,99168.56
2023-04-15T03:10:33.332Z,99166.88
2023-04-15T03:13:02.928Z,99163.25
2023-04-15T03:15:32.451Z,99163.34
2023-04-15T03:18:06.002Z,99157.81
2023-04-15T03:20:37.790Z,99160.94
2023-04-15T03:23:06.392Z,99162.25
2023-04-15T03:25:35.530Z,99163.75
2023-04-15T03:28:07.286Z,99162.25
2023-04-15T03:30:36.031Z,99156.28
2023-04-15T03:33:04.520Z,99155.63
2023-04-15T03:35:34.184Z,99162.44
2023-04-15T03:38:04.505Z,99151.44
2023-04-15T03:40:33.090Z,99150.22
2023-04-15T03:43:01.803Z,99158.16
2023-04-15T03:45:30.374Z,99158.94
2023-04-15T03:48:11.377Z,99158.25
2023-04-15T03:50:44.114Z,99152.06
2023-04-15T03:53:14.893Z,99155.06
2023-04-15T03:55:44.898Z,99160.09
2023-04-15T03:58:13.278Z,99154.78
2023-04-15T04:00:42.046Z,99151.56
2023-04-15T04:03:11.120Z,99155.22
2023-04-15T04:05:41.768Z,99160.44
2023-04-15T04:08:10.525Z,99152.66
2023-04-15T04:10:40.762Z,99149.09
2023-04-15T04:13:09.477Z,99156.97
2023-04-15T04:15:37.970Z,99150.81
2023-04-15T04:18:06.658Z,99155.06
2023-04-15T04:20:35.089Z,99160.75
2023-04-15T04:23:03.505Z,99149.81
2023-04-15T04:25:31.450Z,99147.72
2023-04-15T04:28:01.064Z,99144.47
2023-04-15T04:30:28.907Z,99159.91
2023-04-15T04:32:57.084Z,99156.34
2023-04-15T04:35:24.932Z,99159.53
2023-04-15T04:37:54.054Z,99166.34
2023-04-15T04:40:22.598Z,99168.94
2023-04-15T04:42:50.490Z,99166.59
2023-04-15T04:45:20.205Z,99165.66
2023-04-15T04:47:48.853Z,99173.81
2023-04-15T04:50:18.295Z,99178.13
2023-04-15T04:52:47.326Z,99178.31
2023-04-15T04:55:15.653Z,99177.16
2023-04-15T04:57:44.154Z,99173.53
2023-04-15T05:00:13.368Z,99175.84
2023-04-15T05:02:47.115Z,99168.41
2023-04-15T05:05:16.390Z,99165.91
2023-04-15T05:07:44.534Z,99171.81
2023-04-15T05:10:13.261Z,99173.78
2023-04-15T05:12:41.620Z,99173.63
2023-04-15T05:15:11.527Z,99183.50
2023-04-15T05:17:39.774Z,99181.78
2023-04-15T05:20:12.673Z,99182.94
2023-04-15T05:22:41.609Z,99182.16
2023-04-15T05:25:14.268Z,99182.72
2023-04-15T05:27:43.498Z,99195.41
2023-04-15T05:30:13.540Z,99190.72
2023-04-15T05:32:43.712Z,99196.09
2023-04-15T05:35:14.760Z,99195.03
2023-04-15T05:37:43.549Z,99192.53
2023-04-15T05:40:12.017Z,99208.34
2023-04-15T05:42:41.165Z,99203.31
2023-04-15T05:45:10.708Z,99197.81
2023-04-15T05:47:39.088Z,99200.75
2023-04-15T05:50:08.514Z,99196.06
2023-04-15T05:52:40.708Z,99205.88
2023-04-15T05:55:09.041Z,99208.06
2023-04-15T05:57:41.481Z,99217.41
2023-04-15T06:00:11.604Z,99223.88
2023-04-15T06:02:39.649Z,99222.94
2023-04-15T06:05:10.049Z,99228.22
2023-04-15T06:07:41.424Z,99227.53
2023-04-15T06:10:10.714Z,99233.69
2023-04-15T06:12:38.845Z,99232.25
2023-04-15T06:15:10.682Z,99233.03
2023-04-15T06:17:39.149Z,99231.78
2023-04-15T06:20:08.591Z,99224.75
2023-04-15T06:22:38.343Z,99238.47
2023-04-15T06:25:12.007Z,99241.09
2023-04-15T06:27:40.640Z,99236.03
2023-04-15T06:30:09.396Z,99246.88
2023-04-15T06:32:37.472Z,99251.84
2023-04-15T06:35:07.919Z,99255.91
2023-04-15T06:37:36.523Z,99256.03
2023-04-15T06:40:06.372Z,99258.59
2023-04-15T06:42:37.603Z,99265.31
2023-04-15T06:45:07.528Z,99259.59
2023-04-15T06:47:35.943Z,99262.59
2023-04-15T06:50:04.658Z,99269.19
2023-04-15T06:52:32.540Z,99276.59
2023-04-15T06:55:03.256Z,99277.59
2023-04-15T06:57:33.284Z,99277.16
2023-04-15T07:00:05.860Z,99273.84
2023-04-15T07:02:34.526Z,99282.16
2023-04-15T07:05:02.627Z,99284.03
2023-04-15T07:07:30.676Z,99284.53
2023-04-15T07:09:58.871Z,99280.34
2023-04-15T07:12:28.266Z,99270.78
2023-04-15T07:14:56.431Z,99276.75
2023-04-15T07:17:26.064Z,99275.25
2023-04-15T07:19:54.260Z,99279.00
2023-04-15T07:22:22.533Z,99277.53
2023-04-15T07:24:50.652Z,99278.66
2023-04-15T07:27:19.286Z,99287.19
2023-04-15T07:29:47.507Z,99278.53
2023-04-15T07:32:15.384Z,99286.69
2023-04-15T07:34:45.386Z,99283.75
2023-04-15T07:37:14.165Z,99286.06
2023-04-15T07:39:42.728Z,99278.66
2023-04-15T07:42:13.964Z,99287.31
2023-04-15T07:44:42.674Z,99281.84
2023-04-15T07:47:10.949Z,99280.78
2023-04-15T07:49:39.316Z,99280.16
2023-04-15T07:52:09.139Z,99289.25
2023-04-15T07:54:37.598Z,99285.97
2023-04-15T07:57:05.884Z,99288.00
2023-04-15T07:59:34.670Z,99291.38
2023-04-15T08:02:02.932Z,99285.09
2023-04-15T08:04:32.573Z,99285.91
2023-04-15T08:07:00.987Z,99297.03
2023-04-15T08:09:34.620Z,99283.66
2023-04-15T08:12:03.492Z,99290.09
2023-04-15T08:14:32.211Z,99283.38
2023-04-15T08:17:05.563Z,99275.72
2023-04-15T08:19:34.583Z,99285.00
2023-04-15T08:22:02.720Z,99277.66
2023-04-15T08:24:35.902Z,99285.28
2023-04-15T08:27:08.152Z,99279.28
2023-04-15T08:29:36.484Z,99282.28
2023-04-15T08:32:04.917Z,99280.16
2023-04-15T08:34:35.954Z,99286.63
2023-04-15T08:37:05.301Z,99286.19
2023-04-15T08:39:37.358Z,99292.16
2023-04-15T08:42:07.885Z,99287.78
2023-04-15T08:44:37.594Z,99291.31
2023-04-15T08:47:09.296Z,99290.53
2023-04-15T08:49:42.858Z,99292.44
2023-04-15T08:52:11.190Z,99291.03
2023-04-15T08:54:42.518Z,99286.38
2023-04-15T08:57:12.211Z,99284.63
2023-04-15T08:59:41.417Z,99284.56
2023-04-15T09:02:10.225Z,99287.22
2023-04-15T09:04:39.364Z,99287.13
2023-04-15T09:07:07.911Z,99291.22
2023-04-15T09:09:37.734Z,99288.59
2023-04-15T09:12:06.997Z,99291.63
2023-04-15T09:14:35.815Z,99295.16
2023-04-15T09:17:06.133Z,99300.28
2023-04-15T09:19:35.730Z,99302.47
2023-04-15T09:22:03.901Z,99302.56
2023-04-15T09:24:39.418Z,99315.16
2023-04-15T09:27:09.646Z,99311.13
2023-04-15T09:29:40.454Z,99325.59
2023-04-15T09:32:13.053Z,99326.72
2023-04-15T09:34:42.472Z,99324.63
2023-04-15T09:37:11.180Z,99320.00
2023-04-15T09:39:50.224Z,99319.69
2023-04-15T09:42:24.683Z,99320.72
2023-04-15T09:44:53.557Z,99327.53
2023-04-15T09:47:32.924Z,99309.16
2023-04-15T09:50:02.573Z,99316.41
2023-04-15T09:52:30.697Z,99322.81
2023-04-15T09:54:59.623Z,99323.69
2023-04-15T09:57:38.000Z,99325.38
2023-04-15T10:00:08.573Z,99339.34
2023-04-15T10:02:37.585Z,99336.09
2023-04-15T10:05:07.070Z,99326.19
2023-04-15T10:07:35.759Z,99335.06
2023-04-15T10:10:05.434Z,99337.34
2023-04-15T10:12:35.443Z,99339.88
2023-04-15T10:15:06.566Z,99347.00
2023-04-15T10:17:35.736Z,99350.44
2023-04-15T10:20:06.494Z,99341.81
2023-04-15T10:22:34.537Z,99348.88
2023-04-15T10:25:04.866Z,99353.91
2023-04-15T10:27:34.724Z,99360.75
2023-04-15T10:30:04.934Z,99358.56
2023-04-15T10:32:33.405Z,99355.31
2023-04-15T10:35:04.676Z,99359.09
2023-04-15T10:37:37.517Z,99371.81
2023-04-15T10:40:24.712Z,99365.69
2023-04-15T10:42:54.891Z,99362.97
2023-04-15T10:45:24.138Z,99368.59
2023-04-15T10:48:01.546Z,99373.03
2023-04-15T10:50:35.090Z,99377.91
2023-04-15T10:53:04.367Z,99383.19
2023-04-15T10:55:34.775Z,99375.88
2023-04-15T10:58:04.574Z,99379.72
2023-04-15T11:00:35.958Z,99381.94
2023-04-15T11:03:07.532Z,99381.09
2023-04-15T11:05:52.211Z,99394.59
2023-04-15T11:08:20.769Z,99375.84
2023-04-15T11:11:06.067Z,99379.06
2023-04-15T11:13:36.268Z,99385.78
2023-04-15T11:16:04.895Z,99385.34
2023-04-15T11:18:34.122Z,99382.75
2023-04-15T11:21:25.846Z,99382.31
2023-04-15T11:23:58.260Z,99387.41
2023-04-15T11:26:27.876Z,99390.88
2023-04-15T11:28:57.244Z,99389.78
2023-04-15T11:31:28.824Z,99392.72
2023-04-15T11:34:00.449Z,99400.34
2023-04-15T11:36:29.220Z,99396.31
2023-04-15T11:38:57.104Z,99401.22
2023-04-15T11:41:25.004Z,99405.81
2023-04-15T11:43:53.691Z,99407.03
2023-04-15T11:46:23.144Z,99399.44
2023-04-15T11:48:51.165Z,99410.53
2023-04-15T11:51:21.885Z,99400.03
2023-04-15T11:53:50.619Z,99400.06
2023-04-15T11:56:23.268Z,99403.41
2023-04-15T11:58:53.733Z,99414.41
2023-04-15T12:01:32.424Z,99396.50
2023-04-15T12:04:01.562Z,99409.31
2023-04-15T12:06:35.402Z,99408.47
2023-04-15T12:09:05.697Z,99412.09
2023-04-15T12:11:35.572Z,99435.59
2023-04-15T12:14:11.157Z,99422.03
2023-04-15T12:16:48.163Z,99416.28
2023-04-15T12:19:20.222Z,99422.78
2023-04-15T12:21:49.153Z,99431.16
2023-04-15T12:24:22.387Z,99433.81
2023-04-15T12:26:51.492Z,99434.84
2023-04-15T12:29:19.852Z,99457.41
2023-04-15T12:31:54.555Z,99453.44
2023-04-15T12:34:31.580Z,99453.22
2023-04-15T12:37:01.498Z,99472.91
2023-04-15T12:39:32.736Z,99481.50
2023-04-15T12:42:01.876Z,99473.38
2023-04-15T12:44:31.978Z,99475.41
2023-04-15T12:47:01.711Z,99484.88
2023-04-15T12:49:31.112Z,99493.81
2023-04-15T12:52:00.850Z,99502.06
2023-04-15T12:54:29.248Z,99503.00
2023-04-15T12:56:57.901Z,99497.53
2023-04-15T12:59:26.275Z,99505.56
2023-04-15T13:01:55.971Z,99497.94
2023-04-15T13:04:25.721Z,99502.94
2023-04-15T13:06:54.139Z,99511.19
2023-04-15T13:09:23.005Z,99507.78
2023-04-15T13:11:51.165Z,99513.94
2023-04-15T13:14:19.354Z,99508.25
2023-04-15T13:16:47.445Z,99513.44
2023-04-15T13:19:15.581Z,99526.06
2023-04-15T13:21:45.019Z,99520.03
2023-04-15T13:24:16.468Z,99520.63
2023-04-15T13:26:45.698Z,99520.38
2023-04-15T13:29:14.503Z,99523.47
2023-04-15T13:31:42.410Z,99531.47
2023-04-15T13:34:10.639Z,99524.59
2023-04-15T13:36:38.773Z,99533.69
2023-04-15T13:39:11.163Z,99533.09
2023-04-15T13:41:39.535Z,99531.25
2023-04-15T13:44:09.365Z,99533.03
2023-04-15T13:46:38.106Z,99539.53
2023-04-15T13:49:06.292Z,99542.69
2023-04-15T13:51:36.142Z,99539.72
2023-04-15T13:54:04.462Z,99551.91
2023-04-15T13:56:34.307Z,99548.16
2023-04-15T13:59:03.205Z,99540.09
2023-04-15T14:01:32.856Z,99543.66
2023-04-15T14:04:02.687Z,99542.59
2023-04-15T14:06:32.361Z,99552.66
2023-04-15T14:09:00.325Z,99547.28
2023-04-15T14:11:30.105Z,99552.03
2023-04-15T14:14:05.011Z,99559.13
2023-04-15T14:16:34.123Z,99558.66
2023-04-15T14:19:03.965Z,99561.53
2023-04-15T14:21:33.106Z,99565.69
2023-04-15T14:24:01.049Z,99572.59
2023-04-15T14:26:29.765Z,99572.81
2023-04-15T14:28:59.662Z,99565.81
2023-04-15T14:31:27.720Z,99570.91
2023-04-15T14:33:56.263Z,99572.63
2023-04-15T14:36:24.494Z,99575.59
2023-04-15T14:38:52.668Z,99581.81
2023-04-15T14:41:20.853Z,99575.28
2023-04-15T14:43:51.926Z,99587.75
2023-04-15T14:46:21.809Z,99595.34
2023-04-15T14:48:50.114Z,99577.66
2023-04-15T14:51:19.076Z,99596.97
2023-04-15T14:53:47.182Z,99594.78
2023-04-15T14:56:15.470Z,99598.09
2023-04-15T14:58:43.880Z,99608.78
2023-04-15T15:01:12.509Z,99619.06
2023-04-15T15:03:42.560Z,99608.38
2023-04-15T15:06:11.941Z,99615.72
2023-04-15T15:08:40.329Z,99614.59
2023-04-15T15:11:08.682Z,99614.38
2023-04-15T15:13:36.716Z,99617.91
2023-04-15T15:16:05.034Z,99613.47
2023-04-15T15:18:33.685Z,99624.25
2023-04-15T15:21:03.382Z,99621.53
2023-04-15T15:23:32.350Z,99617.69
2023-04-15T15:26:00.895Z,99624.66
2023-04-15T15:28:29.721Z,99631.91
2023-04-15T15:30:58.249Z,99636.78
2023-04-15T15:33:30.034Z,99634.63
2023-04-15T15:35:59.127Z,99643.53
2023-04-15T15:38:29.509Z,99644.13
2023-04-15T15:40:57.746Z,99647.97
2023-04-15T15:43:26.153Z,99647.75
2023-04-15T15:45:55.818Z,99646.56
2023-04-15T15:48:24.433Z,99650.31
2023-04-15T15:50:53.258Z,99648.41
2023-04-15T15:53:24.590Z,99647.72
2023-04-15T15:55:54.186Z,99647.41
2023-04-15T15:58:22.385Z,99655.09
2023-04-15T16:00:50.522Z,99653.94
2023-04-15T16:03:18.741Z,99654.66
2023-04-15T16:05:48.038Z,99660.25
2023-04-15T16:08:16.211Z,99658.38
2023-04-15T16:10:45.777Z,99655.59
2023-04-15T16:13:15.338Z,99659.22
2023-04-15T16:15:44.555Z,99654.75
2023-04-15T16:18:12.638Z,99658.31
2023-04-15T16:20:41.794Z,99664.63
2023-04-15T16:23:15.504Z,99659.88
2023-04-15T16:25:44.585Z,99651.97
2023-04-15T16:28:25.807Z,99654.22
2023-04-15T16:30:56.385Z,99657.34
2023-04-15T16:33:24.658Z,99654.53
2023-04-15T16:35:53.064Z,99660.00
2023-04-15T16:38:21.625Z,99658.16
2023-04-15T16:40:49.828Z,99663.00
2023-04-15T16:43:17.839Z,99666.19
2023-04-15T16:45:51.030Z,99663.72
2023-04-15T16:48:22.726Z,99668.25
2023-04-15T16:50:50.810Z,99668.69
2023-04-15T16:53:19.034Z,99679.44
2023-04-15T16:55:47.198Z,99678.34
2023-04-15T16:58:15.363Z,99677.50
2023-04-15T17:00:43.582Z,99684.81
2023-04-15T17:03:12.202Z,99682.50
2023-04-15T17:05:42.768Z,99695.13
2023-04-15T17:08:11.274Z,99696.69
2023-04-15T17:10:39.860Z,99691.91
2023-04-15T17:13:08.071Z,99690.78
2023-04-15T17:15:36.444Z,99696.41
2023-04-15T17:18:06.034Z,99693.69
2023-04-15T17:20:34.656Z,99700.00
2023-04-15T17:23:04.969Z,99698.09
2023-04-15T17:25:33.292Z,99699.66
2023-04-15T17:28:02.052Z,99704.38
2023-04-15T17:30:31.025Z,99708.44
2023-04-15T17:32:59.514Z,99710.06
2023-04-15T17:35:28.394Z,99718.31
2023-04-15T17:43:42.563Z,99715.19
2023-04-15T17:46:12.521Z,99713.50
2023-04-15T17:48:41.257Z,99727.41
2023-04-15T17:51:09.234Z,99732.66
2023-04-15T17:53:38.221Z,99735.44
2023-04-15T17:56:07.062Z,99740.47
2023-04-15T17:58:35.546Z,99750.69
2023-04-15T18:01:05.479Z,99755.09
2023-04-15T18:03:34.379Z,99757.06
2023-04-15T18:06:03.251Z,99757.16
2023-04-15T18:08:32.482Z,99761.56
2023-04-15T18:11:00.820Z,99760.09
2023-04-15T18:13:29.033Z,99759.91
2023-04-15T18:15:58.802Z,99765.06
2023-04-15T18:24:13.726Z,99776.94
2023-04-15T18:26:42.222Z,99777.84
2023-04-15T18:29:12.512Z,99784.25
2023-04-15T18:31:41.661Z,99786.53
2023-04-15T18:34:10.154Z,99786.81
2023-04-15T18:36:38.580Z,99783.56
2023-04-15T18:39:06.829Z,99790.03
2023-04-15T18:41:36.832Z,99797.44
2023-04-15T18:44:05.760Z,99799.22
2023-04-15T18:46:33.885Z,99797.22
2023-04-15T18:49:02.409Z,99804.81
2023-04-15T18:51:31.059Z,99807.63
2023-04-15T18:53:59.446Z,99808.00
2023-04-15T18:56:27.710Z,99807.41
2023-04-15T18:59:27.516Z,99814.09
2023-04-15T19:01:46.423Z,99820.09
2023-04-15T19:04:15.053Z,99814.81
2023-04-15T19:06:43.316Z,99823.59
2023-04-15T19:09:11.626Z,99820.09
2023-04-15T19:14:37.227Z,99823.22
2023-04-15T19:17:05.521Z,99831.81
2023-04-15T19:19:33.798Z,99831.44
2023-04-15T19:22:03.861Z,99832.47
2023-04-15T19:24:33.080Z,99837.19
2023-04-15T19:27:04.189Z,99844.75
2023-04-15T19:29:32.640Z,99842.06
2023-04-15T19:32:01.873Z,99847.41
2023-04-15T19:34:29.714Z,99852.53
2023-04-15T19:36:57.953Z,99850.38
2023-04-15T19:39:26.067Z,99849.28
2023-04-15T19:41:55.519Z,99843.28
2023-04-15T19:44:23.485Z,99850.66
2023-04-15T19:46:53.320Z,99850.47
2023-04-15T19:49:22.781Z,99856.59
2023-04-15T19:51:51.392Z,99851.78
2023-04-15T19:54:19.061Z,99854.56
2023-04-15T19:56:47.012Z,99859.75
2023-04-15T19:59:14.908Z,99853.91
2023-04-15T20:01:42.971Z,99863.44
2023-04-15T20:04:11.346Z,99871.19
2023-04-15T20:06:40.912Z,99875.25
2023-04-15T20:09:11.083Z,99877.75
2023-04-15T20:12:09.715Z,99880.34
2023-04-15T20:14:46.794Z,99876.53
2023-04-15T20:17:15.838Z,99882.28
2023-04-15T20:19:43.974Z,99880.16
2023-04-15T20:22:13.178Z,99885.78
2023-04-15T20:24:41.111Z,99883.47
2023-04-15T20:27:08.945Z,99881.16
2023-04-15T20:29:38.062Z,99893.38
2023-04-15T20:32:06.728Z,99884.66
2023-04-15T20:34:35.321Z,99887.63
2023-04-15T20:37:03.206Z,99889.94
2023-04-15T20:39:33.128Z,99895.03
2023-04-15T20:42:01.575Z,99896.78
2023-04-15T20:44:29.601Z,99896.69
2023-04-15T20:46:57.637Z,99896.88
2023-04-15T20:49:25.476Z,99900.38
2023-04-15T20:51:53.600Z,99903.16
2023-04-15T20:54:21.609Z,99902.25
2023-04-15T20:56:51.264Z,99907.41
2023-04-15T20:59:19.322Z,99915.25
2023-04-15T21:01:47.968Z,99915.06
2023-04-15T21:04:15.686Z,99910.72
2023-04-15T21:06:43.836Z,99918.50
2023-04-15T21:09:11.971Z,99927.94
2023-04-15T21:11:57.212Z,99931.25
2023-04-15T21:14:29.863Z,99925.16
2023-04-15T21:16:58.612Z,99924.13
2023-04-15T21:19:27.666Z,99930.81
2023-04-15T21:21:55.928Z,99928.28
2023-04-15T21:24:24.473Z,99937.63
2023-04-15T21:26:52.777Z,99944.41
2023-04-15T21:29:21.459Z,99942.66
2023-04-15T21:31:51.634Z,99945.97
2023-04-15T21:34:19.727Z,99948.75
2023-04-15T21:36:48.024Z,99954.75
2023-04-15T21:39:17.432Z,99964.75
2023-04-15T21:41:45.850Z,99960.66
2023-04-15T21:44:14.968Z,99965.00
2023-04-15T21:46:46.014Z,99977.88
2023-04-15T21:49:18.312Z,99980.44
2023-04-15T21:51:48.640Z,99976.00
2023-04-15T21:54:22.546Z,99988.03
2023-04-15T21:56:51.672Z,99988.41
2023-04-15T21:59:20.584Z,99992.09
2023-04-15T22:01:50.346Z,100000.13
2023-04-15T22:04:24.721Z,99995.78
2023-04-15T22:06:56.159Z,100001.88
2023-04-15T22:09:25.426Z,100002.81
2023-04-15T22:11:54.751Z,100008.63
2023-04-15T22:14:23.687Z,100006.81
2023-04-15T22:16:52.298Z,100017.16
2023-04-15T22:19:20.900Z,100013.91
2023-04-15T22:21:51.199Z,100018.16
2023-04-15T22:24:37.280Z,100021.97
2023-04-15T22:27:08.997Z,100032.63
2023-04-15T22:29:37.159Z,100034.44
2023-04-15T22:32:06.170Z,100036.06
2023-04-15T22:34:35.693Z,100034.38
2023-04-15T22:37:05.795Z,100036.50
2023-04-15T22:39:34.863Z,100039.63
2023-04-15T22:42:03.735Z,100051.19
2023-04-15T22:44:32.218Z,100045.84
2023-04-15T22:47:00.692Z,100053.59
2023-04-15T22:49:29.057Z,100053.69
2023-04-15T22:51:57.361Z,100052.03
2023-04-15T22:54:27.181Z,100062.84
2023-04-15T22:56:56.572Z,100056.94
2023-04-15T22:59:25.514Z,100066.81
2023-04-15T23:01:54.349Z,100063.78
2023-04-15T23:04:28.365Z,100063.88
2023-04-15T23:06:58.106Z,100065.81
2023-04-15T23:09:29.188Z,100065.53
2023-04-15T23:11:58.612Z,100070.16
2023-04-15T23:14:28.867Z,100061.66
2023-04-15T23:16:59.787Z,100069.97
2023-04-15T23:19:30.410Z,100075.97
2023-04-15T23:21:59.317Z,100070.03
2023-04-15T23:24:31.626Z,100070.88
2023-04-15T23:27:01.439Z,100074.22
2023-04-15T23:29:30.144Z,100078.47
2023-04-15T23:32:00.086Z,100078.56
2023-04-15T23:34:29.034Z,100075.16
2023-04-15T23:36:57.685Z,100070.69
2023-04-15T23:39:27.044Z,100075.50
2023-04-15T23:41:58.207Z,100071.16
2023-04-15T23:44:26.893Z,100073.47
2023-04-15T23:46:56.029Z,100073.28
2023-04-15T23:49:24.856Z,100071.25
2023-04-15T23:51:54.149Z,100077.34
2023-04-15T23:54:23.025Z,100081.69
2023-04-15T23:56:53.068Z,100077.25
2023-04-15T23:59:23.638Z,100082.53
